sensor_id;sensor_type;location;lat;lon;timestamp;temperature;humidity
71304;DHT22;59091;47.446;19.148;2023-07-13T00:01:28;26.37;60.80
71304;DHT22;59091;47.446;19.148;2023-07-13T00:03:55;26.26;62.18
71304;DHT22;59091;47.446;19.148;2023-07-13T00:06:21;26.15;62.66
71304;DHT22;59091;47.446;19.148;2023-07-13T00:08:46;26.15;62.59
71304;DHT22;59091;47.446;19.148;2023-07-13T00:11:13;26.02;62.74
71304;DHT22;59091;47.446;19.148;2023-07-13T00:13:40;25.88;63.33
71304;DHT22;59091;47.446;19.148;2023-07-13T00:16:08;25.86;63.67
71304;DHT22;59091;47.446;19.148;2023-07-13T00:18:34;25.98;63.43
71304;DHT22;59091;47.446;19.148;2023-07-13T00:20:59;25.89;63.88
71304;DHT22;59091;47.446;19.148;2023-07-13T00:23:37;25.74;64.07
71304;DHT22;59091;47.446;19.148;2023-07-13T00:26:03;25.37;63.77
71304;DHT22;59091;47.446;19.148;2023-07-13T00:28:29;25.43;62.98
71304;DHT22;59091;47.446;19.148;2023-07-13T00:30:54;25.48;62.62
71304;DHT22;59091;47.446;19.148;2023-07-13T00:33:20;25.57;62.36
71304;DHT22;59091;47.446;19.148;2023-07-13T00:35:46;25.63;62.15
71304;DHT22;59091;47.446;19.148;2023-07-13T00:38:11;25.60;61.91
71304;DHT22;59091;47.446;19.148;2023-07-13T00:40:37;25.65;61.32
71304;DHT22;59091;47.446;19.148;2023-07-13T00:43:09;25.63;60.66
71304;DHT22;59091;47.446;19.148;2023-07-13T00:48:11;25.64;60.58
71304;DHT22;59091;47.446;19.148;2023-07-13T00:50:38;25.65;60.87
71304;DHT22;59091;47.446;19.148;2023-07-13T00:53:04;25.67;60.94
71304;DHT22;59091;47.446;19.148;2023-07-13T00:55:29;25.77;60.72
71304;DHT22;59091;47.446;19.148;2023-07-13T00:57:55;25.70;60.79
71304;DHT22;59091;47.446;19.148;2023-07-13T01:00:22;25.53;61.14
71304;DHT22;59091;47.446;19.148;2023-07-13T01:02:48;25.63;61.05
71304;DHT22;59091;47.446;19.148;2023-07-13T01:05:17;25.50;61.16
71304;DHT22;59091;47.446;19.148;2023-07-13T01:07:44;25.61;60.92
71304;DHT22;59091;47.446;19.148;2023-07-13T01:10:11;25.77;60.53
71304;DHT22;59091;47.446;19.148;2023-07-13T01:12:36;25.91;60.03
71304;DHT22;59091;47.446;19.148;2023-07-13T01:15:03;25.99;59.69
71304;DHT22;59091;47.446;19.148;2023-07-13T01:17:31;26.09;59.44
71304;DHT22;59091;47.446;19.148;2023-07-13T01:19:58;26.12;59.36
71304;DHT22;59091;47.446;19.148;2023-07-13T01:22:24;26.05;59.67
71304;DHT22;59091;47.446;19.148;2023-07-13T01:24:52;25.65;60.92
71304;DHT22;59091;47.446;19.148;2023-07-13T01:27:21;25.55;61.42
71304;DHT22;59091;47.446;19.148;2023-07-13T01:29:50;25.48;61.70
71304;DHT22;59091;47.446;19.148;2023-07-13T01:32:19;25.50;61.57
71304;DHT22;59091;47.446;19.148;2023-07-13T01:34:48;25.31;62.03
71304;DHT22;59091;47.446;19.148;2023-07-13T01:37:14;25.41;61.79
71304;DHT22;59091;47.446;19.148;2023-07-13T01:39:40;25.51;61.27
71304;DHT22;59091;47.446;19.148;2023-07-13T01:42:05;25.60;61.35
71304;DHT22;59091;47.446;19.148;2023-07-13T01:44:31;25.63;60.87
71304;DHT22;59091;47.446;19.148;2023-07-13T01:46:57;25.70;60.81
71304;DHT22;59091;47.446;19.148;2023-07-13T01:49:22;25.74;60.63
71304;DHT22;59091;47.446;19.148;2023-07-13T01:51:48;25.71;60.90
71304;DHT22;59091;47.446;19.148;2023-07-13T01:54:13;25.68;61.01
71304;DHT22;59091;47.446;19.148;2023-07-13T01:56:38;25.57;61.41
71304;DHT22;59091;47.446;19.148;2023-07-13T01:59:05;25.40;61.70
71304;DHT22;59091;47.446;19.148;2023-07-13T02:01:30;25.43;61.52
71304;DHT22;59091;47.446;19.148;2023-07-13T02:03:55;25.53;61.12
71304;DHT22;59091;47.446;19.148;2023-07-13T02:06:21;25.53;61.09
71304;DHT22;59091;47.446;19.148;2023-07-13T02:08:46;25.51;61.32
71304;DHT22;59091;47.446;19.148;2023-07-13T02:11:12;25.48;61.37
71304;DHT22;59091;47.446;19.148;2023-07-13T02:13:38;25.30;61.75
71304;DHT22;59091;47.446;19.148;2023-07-13T02:16:03;25.17;62.06
71304;DHT22;59091;47.446;19.148;2023-07-13T02:18:29;25.26;61.68
71304;DHT22;59091;47.446;19.148;2023-07-13T02:20:54;25.31;61.60
71304;DHT22;59091;47.446;19.148;2023-07-13T02:23:19;25.27;61.68
71304;DHT22;59091;47.446;19.148;2023-07-13T02:25:45;25.31;61.61
71304;DHT22;59091;47.446;19.148;2023-07-13T02:28:11;25.36;61.74
71304;DHT22;59091;47.446;19.148;2023-07-13T02:30:36;25.36;61.65
71304;DHT22;59091;47.446;19.148;2023-07-13T02:33:02;25.31;61.96
71304;DHT22;59091;47.446;19.148;2023-07-13T02:35:27;25.28;62.17
71304;DHT22;59091;47.446;19.148;2023-07-13T02:37:53;25.23;62.20
71304;DHT22;59091;47.446;19.148;2023-07-13T02:40:18;25.31;61.81
71304;DHT22;59091;47.446;19.148;2023-07-13T02:42:44;25.33;62.06
71304;DHT22;59091;47.446;19.148;2023-07-13T02:45:09;25.38;61.92
71304;DHT22;59091;47.446;19.148;2023-07-13T02:47:36;25.37;61.92
71304;DHT22;59091;47.446;19.148;2023-07-13T02:50:02;25.40;61.94
71304;DHT22;59091;47.446;19.148;2023-07-13T02:52:27;25.28;62.48
71304;DHT22;59091;47.446;19.148;2023-07-13T02:54:53;25.23;62.50
71304;DHT22;59091;47.446;19.148;2023-07-13T02:57:18;25.20;62.59
71304;DHT22;59091;47.446;19.148;2023-07-13T02:59:43;25.22;62.50
71304;DHT22;59091;47.446;19.148;2023-07-13T03:02:09;25.24;62.44
71304;DHT22;59091;47.446;19.148;2023-07-13T03:04:36;25.26;62.65
71304;DHT22;59091;47.446;19.148;2023-07-13T03:07:02;25.23;62.72
71304;DHT22;59091;47.446;19.148;2023-07-13T03:09:27;25.23;62.57
71304;DHT22;59091;47.446;19.148;2023-07-13T03:11:54;25.19;62.90
71304;DHT22;59091;47.446;19.148;2023-07-13T03:14:22;25.09;63.23
71304;DHT22;59091;47.446;19.148;2023-07-13T03:16:47;25.14;63.05
71304;DHT22;59091;47.446;19.148;2023-07-13T03:19:13;25.03;63.79
71304;DHT22;59091;47.446;19.148;2023-07-13T03:21:38;25.02;64.51
71304;DHT22;59091;47.446;19.148;2023-07-13T03:24:04;25.03;64.53
71304;DHT22;59091;47.446;19.148;2023-07-13T03:26:30;25.00;64.78
71304;DHT22;59091;47.446;19.148;2023-07-13T03:28:55;25.07;64.34
71304;DHT22;59091;47.446;19.148;2023-07-13T03:31:24;25.19;63.52
71304;DHT22;59091;47.446;19.148;2023-07-13T03:33:50;25.26;64.03
71304;DHT22;59091;47.446;19.148;2023-07-13T03:36:19;25.13;64.88
71304;DHT22;59091;47.446;19.148;2023-07-13T03:38:50;24.76;66.59
71304;DHT22;59091;47.446;19.148;2023-07-13T03:41:16;24.69;67.23
71304;DHT22;59091;47.446;19.148;2023-07-13T03:43:43;24.82;66.92
71304;DHT22;59091;47.446;19.148;2023-07-13T03:46:09;24.95;66.58
71304;DHT22;59091;47.446;19.148;2023-07-13T03:48:34;24.96;66.65
71304;DHT22;59091;47.446;19.148;2023-07-13T03:51:00;25.07;66.60
71304;DHT22;59091;47.446;19.148;2023-07-13T03:53:25;24.97;67.29
71304;DHT22;59091;47.446;19.148;2023-07-13T03:55:51;25.02;67.37
71304;DHT22;59091;47.446;19.148;2023-07-13T04:00:56;25.04;67.50
71304;DHT22;59091;47.446;19.148;2023-07-13T04:03:22;25.24;66.71
71304;DHT22;59091;47.446;19.148;2023-07-13T04:05:48;25.24;66.89
71304;DHT22;59091;47.446;19.148;2023-07-13T04:08:14;25.27;66.90
71304;DHT22;59091;47.446;19.148;2023-07-13T04:10:40;25.41;66.58
71304;DHT22;59091;47.446;19.148;2023-07-13T04:13:06;25.44;66.43
71304;DHT22;59091;47.446;19.148;2023-07-13T04:15:32;25.50;66.52
71304;DHT22;59091;47.446;19.148;2023-07-13T04:17:58;25.43;65.51
71304;DHT22;59091;47.446;19.148;2023-07-13T04:20:26;25.58;63.90
71304;DHT22;59091;47.446;19.148;2023-07-13T04:22:52;25.57;66.41
71304;DHT22;59091;47.446;19.148;2023-07-13T04:25:21;25.31;67.08
71304;DHT22;59091;47.446;19.148;2023-07-13T04:27:47;25.36;67.20
71304;DHT22;59091;47.446;19.148;2023-07-13T04:30:12;25.30;67.30
71304;DHT22;59091;47.446;19.148;2023-07-13T04:32:38;25.24;67.74
71304;DHT22;59091;47.446;19.148;2023-07-13T04:35:03;25.14;67.87
71304;DHT22;59091;47.446;19.148;2023-07-13T04:37:29;25.07;68.14
71304;DHT22;59091;47.446;19.148;2023-07-13T04:39:55;25.12;67.98
71304;DHT22;59091;47.446;19.148;2023-07-13T04:42:20;25.13;67.68
71304;DHT22;59091;47.446;19.148;2023-07-13T04:44:50;25.26;66.80
71304;DHT22;59091;47.446;19.148;2023-07-13T04:47:16;25.37;67.22
71304;DHT22;59091;47.446;19.148;2023-07-13T04:49:41;25.44;66.97
71304;DHT22;59091;47.446;19.148;2023-07-13T04:52:07;25.47;66.16
71304;DHT22;59091;47.446;19.148;2023-07-13T04:54:33;25.64;66.39
71304;DHT22;59091;47.446;19.148;2023-07-13T04:56:59;25.70;65.98
71304;DHT22;59091;47.446;19.148;2023-07-13T04:59:25;25.51;66.82
71304;DHT22;59091;47.446;19.148;2023-07-13T05:01:50;25.55;66.45
71304;DHT22;59091;47.446;19.148;2023-07-13T05:04:16;25.60;66.61
71304;DHT22;59091;47.446;19.148;2023-07-13T05:06:42;25.58;67.02
71304;DHT22;59091;47.446;19.148;2023-07-13T05:09:07;25.74;66.65
71304;DHT22;59091;47.446;19.148;2023-07-13T05:11:33;25.84;66.60
71304;DHT22;59091;47.446;19.148;2023-07-13T05:13:58;25.92;66.70
71304;DHT22;59091;47.446;19.148;2023-07-13T05:16:27;25.86;67.12
71304;DHT22;59091;47.446;19.148;2023-07-13T05:18:52;25.40;68.91
71304;DHT22;59091;47.446;19.148;2023-07-13T05:21:18;25.03;69.02
71304;DHT22;59091;47.446;19.148;2023-07-13T05:23:43;24.68;70.47
71304;DHT22;59091;47.446;19.148;2023-07-13T05:26:08;23.90;71.18
71304;DHT22;59091;47.446;19.148;2023-07-13T05:28:34;23.42;73.19
71304;DHT22;59091;47.446;19.148;2023-07-13T05:30:59;23.29;75.09
71304;DHT22;59091;47.446;19.148;2023-07-13T05:33:25;22.95;76.73
71304;DHT22;59091;47.446;19.148;2023-07-13T05:35:51;22.50;78.38
71304;DHT22;59091;47.446;19.148;2023-07-13T05:38:16;22.36;79.20
71304;DHT22;59091;47.446;19.148;2023-07-13T05:40:43;22.47;79.09
71304;DHT22;59091;47.446;19.148;2023-07-13T05:43:09;22.57;79.10
71304;DHT22;59091;47.446;19.148;2023-07-13T05:45:35;22.64;78.70
71304;DHT22;59091;47.446;19.148;2023-07-13T05:48:00;22.58;78.66
71304;DHT22;59091;47.446;19.148;2023-07-13T05:50:26;22.57;78.85
71304;DHT22;59091;47.446;19.148;2023-07-13T05:52:52;22.74;78.27
71304;DHT22;59091;47.446;19.148;2023-07-13T05:55:19;22.51;77.99
71304;DHT22;59091;47.446;19.148;2023-07-13T05:57:44;22.69;77.76
71304;DHT22;59091;47.446;19.148;2023-07-13T06:00:10;22.36;77.14
71304;DHT22;59091;47.446;19.148;2023-07-13T06:02:36;22.00;78.67
71304;DHT22;59091;47.446;19.148;2023-07-13T06:05:01;21.78;79.47
71304;DHT22;59091;47.446;19.148;2023-07-13T06:07:27;21.69;79.35
71304;DHT22;59091;47.446;19.148;2023-07-13T06:09:52;21.28;79.56
71304;DHT22;59091;47.446;19.148;2023-07-13T06:12:17;21.20;80.95
71304;DHT22;59091;47.446;19.148;2023-07-13T06:14:43;21.24;80.65
71304;DHT22;59091;47.446;19.148;2023-07-13T06:17:08;21.15;80.45
71304;DHT22;59091;47.446;19.148;2023-07-13T06:19:34;21.12;80.61
71304;DHT22;59091;47.446;19.148;2023-07-13T06:22:00;21.25;80.55
71304;DHT22;59091;47.446;19.148;2023-07-13T06:24:26;21.28;79.70
71304;DHT22;59091;47.446;19.148;2023-07-13T06:26:51;21.25;80.11
71304;DHT22;59091;47.446;19.148;2023-07-13T06:29:17;21.20;80.25
71304;DHT22;59091;47.446;19.148;2023-07-13T06:31:42;21.15;80.45
71304;DHT22;59091;47.446;19.148;2023-07-13T06:34:08;21.27;80.29
71304;DHT22;59091;47.446;19.148;2023-07-13T06:36:33;21.38;79.91
71304;DHT22;59091;47.446;19.148;2023-07-13T06:38:59;21.51;79.49
71304;DHT22;59091;47.446;19.148;2023-07-13T06:41:25;21.67;78.50
71304;DHT22;59091;47.446;19.148;2023-07-13T06:43:53;21.70;78.34
71304;DHT22;59091;47.446;19.148;2023-07-13T06:46:21;21.80;78.07
71304;DHT22;59091;47.446;19.148;2023-07-13T06:48:46;21.89;77.80
71304;DHT22;59091;47.446;19.148;2023-07-13T06:51:12;21.97;77.52
71304;DHT22;59091;47.446;19.148;2023-07-13T06:53:37;22.16;77.78
71304;DHT22;59091;47.446;19.148;2023-07-13T06:56:03;22.11;77.11
71304;DHT22;59091;47.446;19.148;2023-07-13T06:58:28;22.33;76.74
71304;DHT22;59091;47.446;19.148;2023-07-13T07:00:54;22.60;75.95
71304;DHT22;59091;47.446;19.148;2023-07-13T07:03:19;22.75;75.00
71304;DHT22;59091;47.446;19.148;2023-07-13T07:05:45;23.08;73.93
71304;DHT22;59091;47.446;19.148;2023-07-13T07:08:11;23.23;73.49
71304;DHT22;59091;47.446;19.148;2023-07-13T07:10:36;23.77;71.68
71304;DHT22;59091;47.446;19.148;2023-07-13T07:13:02;23.98;70.89
71304;DHT22;59091;47.446;19.148;2023-07-13T07:15:28;24.51;69.57
71304;DHT22;59091;47.446;19.148;2023-07-13T07:17:54;24.75;68.29
71304;DHT22;59091;47.446;19.148;2023-07-13T07:20:19;24.97;67.35
71304;DHT22;59091;47.446;19.148;2023-07-13T07:22:45;25.03;66.95
71304;DHT22;59091;47.446;19.148;2023-07-13T07:25:11;25.03;68.77
71304;DHT22;59091;47.446;19.148;2023-07-13T07:27:37;25.26;68.05
71304;DHT22;59091;47.446;19.148;2023-07-13T07:30:02;25.60;66.04
71304;DHT22;59091;47.446;19.148;2023-07-13T07:32:29;26.05;64.59
71304;DHT22;59091;47.446;19.148;2023-07-13T07:34:56;26.36;63.83
71304;DHT22;59091;47.446;19.148;2023-07-13T07:37:21;26.59;61.93
71304;DHT22;59091;47.446;19.148;2023-07-13T07:39:47;26.91;63.72
71304;DHT22;59091;47.446;19.148;2023-07-13T07:42:12;27.35;63.07
71304;DHT22;59091;47.446;19.148;2023-07-13T07:44:40;27.55;62.55
71304;DHT22;59091;47.446;19.148;2023-07-13T07:47:05;27.89;61.11
71304;DHT22;59091;47.446;19.148;2023-07-13T07:49:31;27.95;60.29
71304;DHT22;59091;47.446;19.148;2023-07-13T07:51:56;28.44;58.20
71304;DHT22;59091;47.446;19.148;2023-07-13T07:54:22;28.54;57.96
71304;DHT22;59091;47.446;19.148;2023-07-13T07:56:47;28.43;56.38
71304;DHT22;59091;47.446;19.148;2023-07-13T07:59:12;28.44;56.68
71304;DHT22;59091;47.446;19.148;2023-07-13T08:01:38;28.63;56.12
71304;DHT22;59091;47.446;19.148;2023-07-13T08:04:03;28.54;54.69
71304;DHT22;59091;47.446;19.148;2023-07-13T08:06:29;29.08;53.91
71304;DHT22;59091;47.446;19.148;2023-07-13T08:08:55;28.71;53.69
71304;DHT22;59091;47.446;19.148;2023-07-13T08:11:21;28.84;54.06
71304;DHT22;59091;47.446;19.148;2023-07-13T08:13:47;28.82;52.15
71304;DHT22;59091;47.446;19.148;2023-07-13T08:16:13;29.04;52.23
71304;DHT22;59091;47.446;19.148;2023-07-13T08:18:38;29.40;52.60
71304;DHT22;59091;47.446;19.148;2023-07-13T08:21:05;29.63;50.94
71304;DHT22;59091;47.446;19.148;2023-07-13T08:23:31;29.58;50.36
71304;DHT22;59091;47.446;19.148;2023-07-13T08:25:57;29.63;49.98
71304;DHT22;59091;47.446;19.148;2023-07-13T08:28:23;29.62;51.35
71304;DHT22;59091;47.446;19.148;2023-07-13T08:30:49;29.38;51.12
71304;DHT22;59091;47.446;19.148;2023-07-13T08:33:19;29.43;50.58
71304;DHT22;59091;47.446;19.148;2023-07-13T08:35:48;29.80;49.62
71304;DHT22;59091;47.446;19.148;2023-07-13T08:38:14;29.93;50.28
71304;DHT22;59091;47.446;19.148;2023-07-13T08:40:41;30.28;49.31
71304;DHT22;59091;47.446;19.148;2023-07-13T08:43:09;30.49;48.19
71304;DHT22;59091;47.446;19.148;2023-07-13T08:45:57;30.98;48.26
71304;DHT22;59091;47.446;19.148;2023-07-13T08:48:30;30.88;47.34
71304;DHT22;59091;47.446;19.148;2023-07-13T08:53:56;30.93;47.26
71304;DHT22;59091;47.446;19.148;2023-07-13T08:56:25;31.15;46.96
71304;DHT22;59091;47.446;19.148;2023-07-13T08:59:09;31.31;45.76
71304;DHT22;59091;47.446;19.148;2023-07-13T09:04:23;31.39;46.30
71304;DHT22;59091;47.446;19.148;2023-07-13T09:14:56;32.15;45.33
71304;DHT22;59091;47.446;19.148;2023-07-13T09:17:41;31.73;44.50
71304;DHT22;59091;47.446;19.148;2023-07-13T09:22:48;31.39;45.86
71304;DHT22;59091;47.446;19.148;2023-07-13T09:25:32;31.50;46.05
71304;DHT22;59091;47.446;19.148;2023-07-13T09:28:26;31.49;45.32
71304;DHT22;59091;47.446;19.148;2023-07-13T09:30:54;30.68;46.85
71304;DHT22;59091;47.446;19.148;2023-07-13T09:33:21;30.68;47.26
71304;DHT22;59091;47.446;19.148;2023-07-13T09:35:48;30.58;47.73
71304;DHT22;59091;47.446;19.148;2023-07-13T09:38:18;30.75;47.36
71304;DHT22;59091;47.446;19.148;2023-07-13T09:41:44;30.72;47.72
71304;DHT22;59091;47.446;19.148;2023-07-13T09:46:34;30.45;48.83
71304;DHT22;59091;47.446;19.148;2023-07-13T09:48:59;30.37;48.56
71304;DHT22;59091;47.446;19.148;2023-07-13T09:51:25;30.28;48.50
71304;DHT22;59091;47.446;19.148;2023-07-13T09:53:50;30.27;49.57
71304;DHT22;59091;47.446;19.148;2023-07-13T09:56:24;30.32;49.50
71304;DHT22;59091;47.446;19.148;2023-07-13T09:58:54;30.34;49.65
71304;DHT22;59091;47.446;19.148;2023-07-13T10:01:38;29.93;49.51
71304;DHT22;59091;47.446;19.148;2023-07-13T10:04:13;29.99;49.52
71304;DHT22;59091;47.446;19.148;2023-07-13T10:06:41;30.09;49.11
71304;DHT22;59091;47.446;19.148;2023-07-13T10:09:08;29.96;49.67
71304;DHT22;59091;47.446;19.148;2023-07-13T10:11:35;30.00;49.61
71304;DHT22;59091;47.446;19.148;2023-07-13T10:14:02;30.03;49.60
71304;DHT22;59091;47.446;19.148;2023-07-13T10:16:34;30.04;49.67
71304;DHT22;59091;47.446;19.148;2023-07-13T10:19:16;29.83;49.70
71304;DHT22;59091;47.446;19.148;2023-07-13T10:21:57;30.16;49.23
71304;DHT22;59091;47.446;19.148;2023-07-13T10:24:33;30.23;47.85
71304;DHT22;59091;47.446;19.148;2023-07-13T10:27:18;30.20;47.79
71304;DHT22;59091;47.446;19.148;2023-07-13T10:29:47;30.27;48.67
71304;DHT22;59091;47.446;19.148;2023-07-13T10:32:14;30.45;48.55
71304;DHT22;59091;47.446;19.148;2023-07-13T10:34:45;30.42;50.26
71304;DHT22;59091;47.446;19.148;2023-07-13T10:37:45;30.30;48.13
71304;DHT22;59091;47.446;19.148;2023-07-13T10:40:18;30.21;48.84
71304;DHT22;59091;47.446;19.148;2023-07-13T10:42:47;30.11;48.55
71304;DHT22;59091;47.446;19.148;2023-07-13T10:45:20;30.09;48.87
71304;DHT22;59091;47.446;19.148;2023-07-13T10:47:45;30.00;49.05
71304;DHT22;59091;47.446;19.148;2023-07-13T10:50:23;30.01;47.77
71304;DHT22;59091;47.446;19.148;2023-07-13T10:52:54;29.91;48.90
71304;DHT22;59091;47.446;19.148;2023-07-13T10:58:42;29.63;47.64
71304;DHT22;59091;47.446;19.148;2023-07-13T11:01:17;29.79;48.51
71304;DHT22;59091;47.446;19.148;2023-07-13T11:18:54;30.23;45.77
71304;DHT22;59091;47.446;19.148;2023-07-13T11:21:33;30.45;45.08
71304;DHT22;59091;47.446;19.148;2023-07-13T11:24:16;30.44;45.41
71304;DHT22;59091;47.446;19.148;2023-07-13T11:29:32;30.47;44.76
71304;DHT22;59091;47.446;19.148;2023-07-13T11:32:00;30.20;45.91
71304;DHT22;59091;47.446;19.148;2023-07-13T11:34:33;30.07;45.25
71304;DHT22;59091;47.446;19.148;2023-07-13T11:37:00;30.16;45.41
71304;DHT22;59091;47.446;19.148;2023-07-13T11:39:32;30.40;45.89
71304;DHT22;59091;47.446;19.148;2023-07-13T11:42:04;30.24;46.02
71304;DHT22;59091;47.446;19.148;2023-07-13T11:44:32;30.41;45.88
71304;DHT22;59091;47.446;19.148;2023-07-13T11:46:59;30.52;45.50
71304;DHT22;59091;47.446;19.148;2023-07-13T11:49:31;30.68;45.17
71304;DHT22;59091;47.446;19.148;2023-07-13T11:51:57;30.78;45.66
71304;DHT22;59091;47.446;19.148;2023-07-13T11:54:30;30.90;44.07
71304;DHT22;59091;47.446;19.148;2023-07-13T11:56:59;30.98;42.74
71304;DHT22;59091;47.446;19.148;2023-07-13T11:59:27;31.00;43.15
71304;DHT22;59091;47.446;19.148;2023-07-13T12:01:54;31.02;42.61
71304;DHT22;59091;47.446;19.148;2023-07-13T12:04:27;31.00;42.15
71304;DHT22;59091;47.446;19.148;2023-07-13T12:07:04;31.13;42.68
71304;DHT22;59091;47.446;19.148;2023-07-13T12:09:30;31.16;42.05
71304;DHT22;59091;47.446;19.148;2023-07-13T12:11:57;31.13;43.28
71304;DHT22;59091;47.446;19.148;2023-07-13T12:14:25;31.03;43.47
71304;DHT22;59091;47.446;19.148;2023-07-13T12:16:52;31.04;42.40
71304;DHT22;59091;47.446;19.148;2023-07-13T12:19:23;30.61;43.07
71304;DHT22;59091;47.446;19.148;2023-07-13T12:21:56;30.78;42.75
71304;DHT22;59091;47.446;19.148;2023-07-13T12:24:22;30.86;42.63
71304;DHT22;59091;47.446;19.148;2023-07-13T12:27:00;30.98;42.96
71304;DHT22;59091;47.446;19.148;2023-07-13T12:29:29;31.10;42.50
71304;DHT22;59091;47.446;19.148;2023-07-13T12:31:55;31.33;42.52
71304;DHT22;59091;47.446;19.148;2023-07-13T12:34:23;31.30;42.48
71304;DHT22;59091;47.446;19.148;2023-07-13T12:36:51;31.15;42.16
71304;DHT22;59091;47.446;19.148;2023-07-13T12:41:53;31.13;42.00
71304;DHT22;59091;47.446;19.148;2023-07-13T12:44:30;31.26;42.68
71304;DHT22;59091;47.446;19.148;2023-07-13T12:47:05;31.50;41.77
71304;DHT22;59091;47.446;19.148;2023-07-13T12:49:33;31.30;42.28
71304;DHT22;59091;47.446;19.148;2023-07-13T12:52:03;31.34;41.84
71304;DHT22;59091;47.446;19.148;2023-07-13T12:54:30;31.30;41.99
71304;DHT22;59091;47.446;19.148;2023-07-13T12:56:57;31.37;41.68
71304;DHT22;59091;47.446;19.148;2023-07-13T12:59:25;31.51;41.88
71304;DHT22;59091;47.446;19.148;2023-07-13T13:01:53;31.46;42.84
71304;DHT22;59091;47.446;19.148;2023-07-13T13:04:19;31.46;43.49
71304;DHT22;59091;47.446;19.148;2023-07-13T13:06:47;31.64;42.62
71304;DHT22;59091;47.446;19.148;2023-07-13T13:09:14;31.49;42.54
71304;DHT22;59091;47.446;19.148;2023-07-13T13:11:41;31.36;42.50
71304;DHT22;59091;47.446;19.148;2023-07-13T13:14:07;31.53;43.18
71304;DHT22;59091;47.446;19.148;2023-07-13T13:16:45;31.37;43.13
71304;DHT22;59091;47.446;19.148;2023-07-13T13:19:20;31.54;42.24
71304;DHT22;59091;47.446;19.148;2023-07-13T13:21:47;31.74;45.90
71304;DHT22;59091;47.446;19.148;2023-07-13T13:24:15;31.94;43.39
71304;DHT22;59091;47.446;19.148;2023-07-13T13:26:42;32.00;42.10
71304;DHT22;59091;47.446;19.148;2023-07-13T13:29:26;31.90;42.38
71304;DHT22;59091;47.446;19.148;2023-07-13T13:31:53;32.02;42.56
71304;DHT22;59091;47.446;19.148;2023-07-13T13:34:20;31.66;39.50
71304;DHT22;59091;47.446;19.148;2023-07-13T13:36:47;31.63;39.48
71304;DHT22;59091;47.446;19.148;2023-07-13T13:41:47;31.37;40.97
71304;DHT22;59091;47.446;19.148;2023-07-13T13:44:15;31.56;41.30
71304;DHT22;59091;47.446;19.148;2023-07-13T13:46:42;31.92;41.54
71304;DHT22;59091;47.446;19.148;2023-07-13T13:49:23;32.14;40.19
71304;DHT22;59091;47.446;19.148;2023-07-13T13:51:50;32.00;39.28
71304;DHT22;59091;47.446;19.148;2023-07-13T13:54:17;32.24;39.16
71304;DHT22;59091;47.446;19.148;2023-07-13T13:56:45;32.08;39.92
71304;DHT22;59091;47.446;19.148;2023-07-13T13:59:11;32.04;39.45
71304;DHT22;59091;47.446;19.148;2023-07-13T14:01:37;32.10;40.18
71304;DHT22;59091;47.446;19.148;2023-07-13T14:04:04;32.12;39.45
71304;DHT22;59091;47.446;19.148;2023-07-13T14:06:31;32.25;40.81
71304;DHT22;59091;47.446;19.148;2023-07-13T14:08:56;32.11;39.81
71304;DHT22;59091;47.446;19.148;2023-07-13T14:11:22;32.12;40.17
71304;DHT22;59091;47.446;19.148;2023-07-13T14:13:52;32.12;40.19
71304;DHT22;59091;47.446;19.148;2023-07-13T14:16:20;32.20;40.31
71304;DHT22;59091;47.446;19.148;2023-07-13T14:18:47;32.10;40.18
71304;DHT22;59091;47.446;19.148;2023-07-13T14:21:17;32.33;40.63
71304;DHT22;59091;47.446;19.148;2023-07-13T14:23:44;32.24;40.61
71304;DHT22;59091;47.446;19.148;2023-07-13T14:26:16;32.27;40.24
71304;DHT22;59091;47.446;19.148;2023-07-13T14:28:45;32.18;41.25
71304;DHT22;59091;47.446;19.148;2023-07-13T14:31:12;32.29;40.24
71304;DHT22;59091;47.446;19.148;2023-07-13T14:33:38;32.46;40.04
71304;DHT22;59091;47.446;19.148;2023-07-13T14:38:48;32.21;40.78
71304;DHT22;59091;47.446;19.148;2023-07-13T14:41:13;31.98;42.41
71304;DHT22;59091;47.446;19.148;2023-07-13T14:43:39;31.85;42.01
71304;DHT22;59091;47.446;19.148;2023-07-13T14:46:04;31.57;42.14
71304;DHT22;59091;47.446;19.148;2023-07-13T14:48:30;31.36;42.28
71304;DHT22;59091;47.446;19.148;2023-07-13T14:50:57;31.39;42.62
71304;DHT22;59091;47.446;19.148;2023-07-13T14:53:25;31.41;43.22
71304;DHT22;59091;47.446;19.148;2023-07-13T14:55:52;31.40;43.73
71304;DHT22;59091;47.446;19.148;2023-07-13T14:58:18;31.23;44.35
71304;DHT22;59091;47.446;19.148;2023-07-13T15:00:43;31.40;44.34
71304;DHT22;59091;47.446;19.148;2023-07-13T15:03:22;31.26;43.87
71304;DHT22;59091;47.446;19.148;2023-07-13T15:05:48;30.96;43.94
71304;DHT22;59091;47.446;19.148;2023-07-13T15:08:15;31.02;44.19
71304;DHT22;59091;47.446;19.148;2023-07-13T15:10:41;30.99;43.29
71304;DHT22;59091;47.446;19.148;2023-07-13T15:13:18;30.99;43.02
71304;DHT22;59091;47.446;19.148;2023-07-13T15:15:46;31.06;43.47
71304;DHT22;59091;47.446;19.148;2023-07-13T15:18:14;31.00;44.12
71304;DHT22;59091;47.446;19.148;2023-07-13T15:20:43;31.00;43.86
71304;DHT22;59091;47.446;19.148;2023-07-13T15:23:10;30.90;43.31
71304;DHT22;59091;47.446;19.148;2023-07-13T15:25:36;30.93;42.90
71304;DHT22;59091;47.446;19.148;2023-07-13T15:28:02;30.79;42.87
71304;DHT22;59091;47.446;19.148;2023-07-13T15:30:30;30.51;43.99
71304;DHT22;59091;47.446;19.148;2023-07-13T15:32:57;30.45;43.82
71304;DHT22;59091;47.446;19.148;2023-07-13T15:35:27;30.62;42.50
71304;DHT22;59091;47.446;19.148;2023-07-13T15:37:53;30.59;42.95
71304;DHT22;59091;47.446;19.148;2023-07-13T15:40:20;30.51;43.39
71304;DHT22;59091;47.446;19.148;2023-07-13T15:42:47;30.38;43.72
71304;DHT22;59091;47.446;19.148;2023-07-13T15:45:21;30.48;43.14
71304;DHT22;59091;47.446;19.148;2023-07-13T15:47:48;30.28;43.31
71304;DHT22;59091;47.446;19.148;2023-07-13T15:50:22;30.31;43.66
71304;DHT22;59091;47.446;19.148;2023-07-13T15:52:50;30.32;43.83
71304;DHT22;59091;47.446;19.148;2023-07-13T15:55:16;30.35;44.18
71304;DHT22;59091;47.446;19.148;2023-07-13T15:57:48;30.31;43.93
71304;DHT22;59091;47.446;19.148;2023-07-13T16:00:25;30.40;44.20
71304;DHT22;59091;47.446;19.148;2023-07-13T16:02:51;30.24;44.65
71304;DHT22;59091;47.446;19.148;2023-07-13T16:05:18;30.25;44.25
71304;DHT22;59091;47.446;19.148;2023-07-13T16:07:48;30.25;44.08
71304;DHT22;59091;47.446;19.148;2023-07-13T16:10:21;30.27;44.51
71304;DHT22;59091;47.446;19.148;2023-07-13T16:12:47;30.28;45.11